Time;durP1;ratioP1;P1;durP2;ratioP2;P2;SDS_P1;SDS_P2;PMS_P1;PMS_P2;Temp;Humidity;BMP_temperature;BMP_pressure;BME280_temperature;BME280_humidity;BME280_pressure;Samples;Min_cycle;Max_cycle;Signal;HPM_P1;HPM_P2
2022/10/19 00:01:05;;;;;;;49.87;26.43;;;14.30;99.90;;;;;;5046117;28;20871;-61
2022/10/19 00:03:33;;;;;;;40.57;25.30;;;14.30;99.90;;;;;;5044885;28;20442;-61
2022/10/19 00:05:59;;;;;;;43.33;26.53;;;14.30;99.90;;;;;;5046129;28;20953;-62
2022/10/19 00:08:24;;;;;;;35.53;24.80;;;14.20;99.90;;;;;;5047229;28;20425;-60
2022/10/19 00:10:50;;;;;;;41.87;25.70;;;14.20;99.90;;;;;;5047983;28;20957;-61
2022/10/19 00:13:17;;;;;;;36.67;22.90;;;14.10;99.90;;;;;;5049340;28;21514;-61
2022/10/19 00:15:44;;;;;;;32.30;21.23;;;14.10;99.90;;;;;;5049097;28;20185;-62
2022/10/19 00:18:09;;;;;;;40.60;24.43;;;14.10;99.90;;;;;;5047359;28;20600;-61
2022/10/19 00:20:36;;;;;;;32.30;21.73;;;14.10;99.90;;;;;;5045501;28;20527;-60
2022/10/19 00:23:02;;;;;;;35.50;21.83;;;14.10;99.90;;;;;;5048339;28;20200;-61
2022/10/19 00:25:27;;;;;;;37.00;21.83;;;14.00;99.90;;;;;;5046173;28;20960;-61
2022/10/19 00:27:53;;;;;;;33.83;21.20;;;14.00;99.90;;;;;;5049310;28;20433;-61
2022/10/19 00:30:18;;;;;;;39.80;21.73;;;14.00;99.90;;;;;;5046207;28;20230;-63
2022/10/19 00:32:44;;;;;;;27.97;17.70;;;14.00;99.90;;;;;;5055783;28;20278;-61
2022/10/19 00:35:10;;;;;;;30.30;18.20;;;13.90;99.90;;;;;;5046581;28;20860;-62
2022/10/19 00:37:35;;;;;;;32.97;19.27;;;13.90;99.90;;;;;;5046683;28;20224;-62
2022/10/19 00:40:01;;;;;;;32.90;18.90;;;13.80;99.90;;;;;;5039568;28;20195;-62
2022/10/19 00:42:26;;;;;;;23.93;17.00;;;13.70;99.90;;;;;;5045867;28;20211;-61
2022/10/19 00:44:58;;;;;;;30.63;19.57;;;15.60;99.90;;;;;;5044300;28;20225;-61
2022/10/19 00:47:24;;;;;;;27.93;18.20;;;13.70;99.90;;;;;;5041993;28;20195;-62
2022/10/19 00:49:51;;;;;;;29.30;17.07;;;13.70;99.90;;;;;;5048798;28;20962;-61
2022/10/19 00:52:20;;;;;;;26.57;16.80;;;13.60;99.90;;;;;;5050974;28;20786;-62
2022/10/19 00:54:48;;;;;;;27.10;17.30;;;13.50;99.90;;;;;;5047866;28;20428;-61
2022/10/19 00:57:14;;;;;;;24.23;17.10;;;13.50;99.90;;;;;;5049813;28;20428;-61
2022/10/19 00:59:43;;;;;;;27.73;17.70;;;13.50;99.90;;;;;;5052187;28;20442;-61
2022/10/19 01:02:09;;;;;;;26.23;17.30;;;13.50;99.90;;;;;;5049927;28;20549;-62
2022/10/19 01:04:37;;;;;;;31.90;18.30;;;13.50;99.90;;;;;;5047934;28;20999;-62
2022/10/19 01:07:05;;;;;;;27.53;17.20;;;13.50;99.90;;;;;;5051431;28;20432;-59
2022/10/19 01:09:31;;;;;;;25.77;17.30;;;13.50;99.90;;;;;;5047837;28;20456;-62
2022/10/19 01:12:06;;;;;;;32.40;18.63;;;13.50;99.90;;;;;;5052336;28;20514;-62
2022/10/19 01:15:05;;;;;;;27.93;16.77;;;13.50;99.90;;;;;;5049666;28;20200;-61
2022/10/19 01:17:39;;;;;;;27.97;18.20;;;13.40;99.90;;;;;;5052015;28;20870;-62
2022/10/19 01:20:24;;;;;;;31.97;18.43;;;13.40;99.90;;;;;;5050184;28;20457;-60
2022/10/19 01:23:10;;;;;;;30.70;19.57;;;13.30;99.90;;;;;;5048296;28;20440;-62
2022/10/19 01:25:43;;;;;;;30.27;19.03;;;13.20;99.90;;;;;;5049601;28;20440;-61
2022/10/19 01:28:12;;;;;;;28.40;17.00;;;13.10;99.90;;;;;;5054437;28;20454;-61
2022/10/19 01:30:56;;;;;;;29.53;19.23;;;13.10;99.90;;;;;;5049394;28;20441;-62
2022/10/19 01:33:39;;;;;;;26.33;16.60;;;13.00;99.90;;;;;;5049540;28;20446;-62
2022/10/19 01:36:20;;;;;;;27.90;16.93;;;13.00;99.90;;;;;;5050942;28;20650;-62
2022/10/19 01:39:04;;;;;;;26.90;17.73;;;13.10;99.90;;;;;;5046564;28;20440;-61
2022/10/19 01:42:00;;;;;;;26.83;17.83;;;13.00;99.90;;;;;;5047230;28;20559;-60
2022/10/19 01:44:41;;;;;;;30.07;17.67;;;13.00;99.90;;;;;;5050087;28;20512;-61
2022/10/19 01:47:13;;;;;;;30.83;17.63;;;12.90;99.90;;;;;;5049186;28;20480;-61
2022/10/19 01:49:52;;;;;;;26.60;17.30;;;12.80;99.90;;;;;;5050845;28;20478;-62
2022/10/19 01:52:20;;;;;;;30.93;17.27;;;12.80;99.90;;;;;;5050540;28;20456;-61
2022/10/19 01:54:55;;;;;;;21.40;15.63;;;13.00;99.90;;;;;;5050028;28;20973;-61
2022/10/19 01:57:29;;;;;;;26.57;17.70;;;12.90;99.90;;;;;;5047627;28;20423;-61
2022/10/19 01:59:56;;;;;;;25.93;16.97;;;12.90;99.90;;;;;;5048703;28;20449;-61
2022/10/19 02:02:24;;;;;;;26.43;16.73;;;12.90;99.90;;;;;;5046999;28;20485;-62
2022/10/19 02:04:51;;;;;;;26.93;16.03;;;13.00;99.90;;;;;;5051332;28;20847;-60
2022/10/19 02:07:20;;;;;;;25.33;15.67;;;13.10;98.10;;;;;;5047147;28;20519;-64
2022/10/19 02:09:45;;;;;;;21.20;15.47;;;13.20;90.40;;;;;;5053655;28;20422;-66
2022/10/19 02:12:12;;;;;;;24.27;14.47;;;13.20;79.50;;;;;;5047034;28;20463;-60
2022/10/19 02:14:45;;;;;;;24.90;15.00;;;13.20;72.70;;;;;;5047438;28;20238;-60
2022/10/19 02:17:14;;;;;;;24.90;14.60;;;13.20;48.30;;;;;;5050048;28;20450;-60
2022/10/19 02:19:40;;;;;;;25.03;14.77;;;13.20;19.50;;;;;;5047648;28;20848;-60
2022/10/19 02:22:07;;;;;;;24.00;15.00;;;13.20;1.00;;;;;;5048800;28;20457;-59
2022/10/19 02:24:33;;;;;;;23.17;15.67;;;13.00;2.30;;;;;;5049411;28;21072;-59
2022/10/19 02:27:03;;;;;;;22.50;12.63;;;12.90;6.80;;;;;;5047242;28;20453;-60
2022/10/19 02:29:30;;;;;;;20.43;14.57;;;12.90;8.20;;;;;;5049132;28;20222;-59
2022/10/19 02:31:55;;;;;;;23.77;15.10;;;12.90;4.20;;;;;;5048123;28;20421;-60
2022/10/19 02:34:21;;;;;;;26.13;14.87;;;12.80;3.80;;;;;;5050272;28;20424;-60
2022/10/19 02:36:47;;;;;;;20.37;13.40;;;12.80;3.50;;;;;;5050226;28;20624;-60
2022/10/19 02:39:12;;;;;;;17.20;12.90;;;12.90;4.30;;;;;;5049231;28;20189;-60
2022/10/19 02:42:02;;;;;;;18.50;12.70;;;12.90;1.00;;;;;;5048818;28;20215;-61
2022/10/19 02:44:39;;;;;;;18.93;13.63;;;12.90;1.00;;;;;;5048269;28;20452;-60
2022/10/19 02:47:19;;;;;;;15.67;12.87;;;13.00;1.00;;;;;;5047698;28;20430;-59
2022/10/19 02:49:46;;;;;;;20.23;13.40;;;12.90;1.00;;;;;;5047067;28;20433;-59
2022/10/19 02:52:12;;;;;;;19.53;13.10;;;12.90;1.00;;;;;;5048350;28;20483;-60
2022/10/19 02:54:39;;;;;;;16.50;13.30;;;12.90;1.00;;;;;;5048146;28;20422;-61
2022/10/19 02:57:18;;;;;;;20.20;11.93;;;12.90;1.00;;;;;;5049823;28;20453;-60
2022/10/19 02:59:45;;;;;;;17.50;12.07;;;13.00;1.00;;;;;;5049989;28;20447;-61
2022/10/19 03:02:11;;;;;;;15.57;11.47;;;12.90;1.00;;;;;;5048772;28;20455;-61
2022/10/19 03:04:36;;;;;;;18.20;13.50;;;13.00;1.00;;;;;;5049817;28;20413;-60
2022/10/19 03:07:02;;;;;;;17.30;11.57;;;12.90;1.00;;;;;;5049542;28;20871;-60
2022/10/19 03:09:29;;;;;;;13.80;10.30;;;12.80;1.00;;;;;;5049860;28;20185;-60
2022/10/19 03:11:55;;;;;;;17.03;12.20;;;12.80;1.00;;;;;;5044900;28;20423;-60
2022/10/19 03:14:21;;;;;;;18.03;11.63;;;12.80;1.00;;;;;;5047554;28;20439;-60
2022/10/19 03:16:46;;;;;;;15.70;12.20;;;12.80;1.00;;;;;;5048232;28;20538;-60
2022/10/19 03:19:12;;;;;;;18.57;12.37;;;12.80;1.00;;;;;;5048795;28;20195;-60
2022/10/19 03:21:38;;;;;;;19.83;11.37;;;12.90;1.00;;;;;;5047011;28;20226;-61
2022/10/19 03:24:04;;;;;;;15.77;10.53;;;12.80;1.00;;;;;;5047860;28;20222;-60
2022/10/19 03:26:29;;;;;;;16.17;11.13;;;12.80;1.00;;;;;;5048744;28;20191;-60
2022/10/19 03:28:55;;;;;;;17.40;11.17;;;12.80;1.00;;;;;;5049497;28;20460;-60
2022/10/19 03:31:21;;;;;;;13.87;10.30;;;12.70;1.00;;;;;;5048203;28;20191;-60
2022/10/19 03:33:46;;;;;;;16.87;11.30;;;12.80;1.00;;;;;;5045311;28;20280;-60
2022/10/19 03:36:27;;;;;;;14.77;10.90;;;12.70;1.00;;;;;;5048333;28;20721;-60
2022/10/19 03:38:55;;;;;;;21.63;11.87;;;12.70;1.00;;;;;;5049718;28;20241;-59
2022/10/19 03:41:22;;;;;;;14.63;11.13;;;12.70;1.00;;;;;;5049114;28;20544;-60
2022/10/19 03:43:48;;;;;;;17.83;11.50;;;12.80;1.00;;;;;;5050025;28;20481;-59
2022/10/19 03:46:14;;;;;;;15.20;11.17;;;12.80;1.00;;;;;;5047675;28;20467;-59
2022/10/19 03:48:40;;;;;;;17.30;11.40;;;12.80;1.00;;;;;;5048838;28;20180;-60
2022/10/19 03:51:08;;;;;;;23.00;12.47;;;12.80;1.00;;;;;;5045105;28;20443;-60
2022/10/19 03:53:34;;;;;;;18.73;10.77;;;12.80;1.00;;;;;;5049618;28;20202;-60
2022/10/19 03:56:11;;;;;;;18.03;11.20;;;12.80;1.00;;;;;;5047909;28;20434;-59
2022/10/19 03:58:38;;;;;;;17.17;11.83;;;12.90;1.00;;;;;;5049273;28;20435;-60
2022/10/19 04:01:10;;;;;;;21.73;13.60;;;12.90;1.00;;;;;;5047020;28;20474;-60
2022/10/19 04:03:36;;;;;;;13.07;10.73;;;12.90;1.00;;;;;;5048050;28;20777;-60
2022/10/19 04:06:13;;;;;;;14.90;10.93;;;12.90;1.00;;;;;;5046989;28;20445;-60
2022/10/19 04:08:39;;;;;;;16.80;11.40;;;13.00;1.00;;;;;;5044129;28;20499;-61
2022/10/19 04:11:08;;;;;;;24.70;12.70;;;13.10;1.00;;;;;;5047992;28;20564;-59
2022/10/19 04:13:34;;;;;;;22.40;11.60;;;13.00;1.00;;;;;;5045792;28;20452;-60
2022/10/19 04:16:00;;;;;;;14.07;10.93;;;12.90;1.00;;;;;;5047786;28;20447;-60
2022/10/19 04:18:26;;;;;;;19.13;11.13;;;12.80;1.00;;;;;;5046263;28;20482;-60
2022/10/19 04:20:56;;;;;;;15.83;11.60;;;12.80;1.00;;;;;;5048197;28;20452;-59
2022/10/19 04:23:21;;;;;;;15.10;11.27;;;12.80;1.00;;;;;;5048476;28;20256;-60
2022/10/19 04:25:47;;;;;;;16.70;11.40;;;12.80;1.00;;;;;;5051194;28;20437;-60
2022/10/19 04:28:13;;;;;;;15.37;11.73;;;12.80;1.00;;;;;;5053168;28;20192;-60
2022/10/19 04:30:38;;;;;;;18.07;10.40;;;12.80;1.00;;;;;;5050867;28;20184;-60
2022/10/19 04:33:04;;;;;;;15.63;11.00;;;12.80;1.00;;;;;;5053314;28;20653;-59
2022/10/19 04:35:30;;;;;;;19.30;11.30;;;12.80;1.00;;;;;;5051582;28;20197;-59
2022/10/19 04:37:58;;;;;;;17.23;12.37;;;12.70;1.00;;;;;;5050732;28;20224;-59
2022/10/19 04:40:23;;;;;;;16.10;10.43;;;12.70;1.00;;;;;;5052953;28;20436;-59
2022/10/19 04:42:49;;;;;;;15.30;11.00;;;12.60;1.00;;;;;;5051946;28;20465;-59
2022/10/19 04:45:14;;;;;;;17.23;12.03;;;12.70;1.00;;;;;;5047204;28;20225;-60
2022/10/19 04:47:40;;;;;;;14.00;9.67;;;12.70;1.00;;;;;;5051760;28;20180;-59
2022/10/19 04:50:06;;;;;;;19.93;10.77;;;12.70;1.00;;;;;;5052987;28;21486;-60
2022/10/19 04:52:34;;;;;;;19.27;11.40;;;12.70;1.00;;;;;;5051089;28;20248;-60
2022/10/19 04:54:59;;;;;;;12.50;10.70;;;12.70;1.00;;;;;;5051284;28;20192;-60
2022/10/19 04:57:25;;;;;;;19.30;11.80;;;12.70;1.00;;;;;;5052867;28;20432;-60
2022/10/19 04:59:52;;;;;;;17.23;10.77;;;12.60;1.00;;;;;;5051639;28;20281;-60
2022/10/19 05:02:17;;;;;;;16.73;11.40;;;12.60;1.00;;;;;;5049950;28;20893;-60
2022/10/19 05:04:46;;;;;;;22.37;12.93;;;12.70;1.00;;;;;;5051450;28;20453;-60
2022/10/19 05:07:11;;;;;;;19.27;12.87;;;12.70;1.00;;;;;;5051532;28;20199;-60
2022/10/19 05:09:39;;;;;;;19.53;12.23;;;12.70;1.00;;;;;;5051024;28;20445;-60
2022/10/19 05:12:05;;;;;;;17.33;10.63;;;12.70;1.00;;;;;;5052486;28;20185;-60
2022/10/19 05:14:32;;;;;;;21.30;12.33;;;12.80;1.00;;;;;;5049343;28;20432;-60
2022/10/19 05:16:58;;;;;;;18.97;10.93;;;12.70;1.00;;;;;;5050110;28;20195;-60
2022/10/19 05:19:23;;;;;;;20.70;11.90;;;12.80;1.00;;;;;;5050727;28;21044;-60
2022/10/19 05:21:49;;;;;;;16.20;12.43;;;12.70;1.00;;;;;;5049854;28;20801;-59
2022/10/19 05:24:14;;;;;;;16.60;11.60;;;12.70;1.00;;;;;;5048889;28;20197;-60
2022/10/19 05:26:40;;;;;;;19.93;12.77;;;12.60;1.00;;;;;;5059429;28;20265;-60
2022/10/19 05:29:11;;;;;;;23.33;11.80;;;12.60;1.00;;;;;;5054119;28;20210;-60
2022/10/19 05:31:37;;;;;;;19.30;12.57;;;12.60;1.00;;;;;;5051473;28;20455;-60
2022/10/19 05:34:03;;;;;;;21.80;12.67;;;12.60;1.00;;;;;;5050197;28;20429;-61
2022/10/19 05:36:35;;;;;;;19.53;12.03;;;12.60;1.00;;;;;;5044819;28;20271;-59
2022/10/19 05:39:05;;;;;;;18.50;11.97;;;12.60;1.00;;;;;;5041935;28;20444;-60
2022/10/19 05:41:31;;;;;;;17.90;11.70;;;12.60;1.00;;;;;;5051826;28;20447;-59
2022/10/19 05:43:59;;;;;;;16.70;11.53;;;12.50;1.00;;;;;;5046714;28;20946;-59
2022/10/19 05:46:26;;;;;;;18.20;12.03;;;12.60;1.00;;;;;;5049869;28;20187;-61
2022/10/19 05:48:54;;;;;;;18.57;12.10;;;12.60;1.00;;;;;;5052104;28;20465;-61
2022/10/19 05:51:21;;;;;;;18.53;13.17;;;12.60;1.00;;;;;;5054162;28;20527;-59
2022/10/19 05:53:47;;;;;;;18.23;11.17;;;12.60;1.00;;;;;;5052719;28;20453;-59
2022/10/19 05:56:22;;;;;;;20.97;12.40;;;12.70;1.00;;;;;;5050484;28;20422;-60
2022/10/19 05:58:48;;;;;;;17.63;12.33;;;12.80;1.00;;;;;;5069975;28;20794;-60
2022/10/19 06:01:17;;;;;;;19.90;11.93;;;12.80;1.00;;;;;;5064691;28;20461;-60
2022/10/19 06:03:43;;;;;;;21.47;12.60;;;12.80;1.00;;;;;;5060722;28;20496;-60
2022/10/19 06:06:09;;;;;;;17.70;11.23;;;12.80;1.00;;;;;;5053961;28;20803;-60
2022/10/19 06:08:36;;;;;;;14.57;11.63;;;12.80;1.00;;;;;;5052826;28;20558;-60
2022/10/19 06:11:16;;;;;;;18.07;10.83;;;12.90;1.00;;;;;;5046683;28;20967;-63
2022/10/19 06:13:43;;;;;;;19.93;11.13;;;12.90;1.00;;;;;;5050921;28;20419;-62
2022/10/19 06:16:11;;;;;;;18.73;11.60;;;12.90;1.00;;;;;;5057713;28;20448;-61
2022/10/19 06:18:37;;;;;;;15.60;11.70;;;12.80;1.00;;;;;;5059811;28;20507;-61
2022/10/19 06:21:06;;;;;;;13.27;10.50;;;12.80;1.00;;;;;;5059299;28;20529;-62
2022/10/19 06:23:33;;;;;;;18.80;12.00;;;12.80;1.00;;;;;;5056373;28;20457;-62
2022/10/19 06:26:02;;;;;;;21.63;13.57;;;12.80;1.00;;;;;;5057459;28;20451;-61
2022/10/19 06:28:27;;;;;;;14.87;10.23;;;12.80;1.00;;;;;;5053602;28;20458;-61
2022/10/19 06:30:53;;;;;;;17.67;10.47;;;12.70;1.00;;;;;;5060214;28;20450;-61
2022/10/19 06:33:19;;;;;;;14.80;10.10;;;12.70;1.00;;;;;;5063215;28;20232;-61
2022/10/19 06:35:44;;;;;;;18.63;10.77;;;12.70;1.00;;;;;;5054215;28;20254;-60
2022/10/19 06:38:12;;;;;;;17.03;10.77;;;12.80;1.00;;;;;;5050876;28;20191;-60
2022/10/19 06:40:38;;;;;;;11.83;9.20;;;12.80;1.00;;;;;;5048983;28;20188;-58
2022/10/19 06:43:04;;;;;;;16.83;9.97;;;12.90;1.00;;;;;;5047877;28;20843;-61
2022/10/19 06:45:29;;;;;;;17.63;9.40;;;12.90;1.00;;;;;;5049300;28;20925;-60
2022/10/19 06:47:55;;;;;;;12.20;8.50;;;13.10;1.00;;;;;;5049435;28;20674;-60
2022/10/19 06:50:21;;;;;;;14.60;9.90;;;13.10;1.00;;;;;;5047820;28;20189;-60
2022/10/19 06:52:46;;;;;;;14.00;7.90;;;13.30;1.00;;;;;;5049974;28;20177;-60
2022/10/19 06:55:12;;;;;;;11.97;7.63;;;13.40;1.00;;;;;;5050942;28;20223;-59
2022/10/19 06:57:38;;;;;;;12.07;7.00;;;13.50;1.00;;;;;;5051788;28;20202;-60
2022/10/19 07:00:05;;;;;;;13.73;8.70;;;13.40;1.00;;;;;;5045984;28;20226;-60
2022/10/19 07:02:31;;;;;;;12.67;7.90;;;13.50;1.00;;;;;;5051616;28;20218;-60
2022/10/19 07:04:57;;;;;;;12.10;7.07;;;13.50;1.00;;;;;;5046039;28;20613;-59
2022/10/19 07:07:23;;;;;;;12.93;7.70;;;13.60;1.00;;;;;;5046468;28;20876;-60
2022/10/19 07:09:48;;;;;;;11.50;7.60;;;13.60;1.00;;;;;;5048509;28;20645;-60
2022/10/19 07:12:14;;;;;;;10.10;7.20;;;13.60;1.00;;;;;;5047952;28;20651;-59
2022/10/19 07:14:39;;;;;;;8.63;6.00;;;13.60;1.00;;;;;;5048400;28;20277;-60
2022/10/19 07:17:06;;;;;;;11.77;7.23;;;13.60;1.00;;;;;;5049323;28;20191;-59
2022/10/19 07:19:32;;;;;;;12.30;6.60;;;13.50;1.00;;;;;;5048370;28;20199;-61
2022/10/19 07:21:58;;;;;;;9.70;6.17;;;13.60;1.00;;;;;;5046075;28;20476;-59
2022/10/19 07:24:24;;;;;;;8.90;6.90;;;13.70;1.00;;;;;;5049890;28;20417;-60
2022/10/19 07:26:49;;;;;;;10.63;6.73;;;13.70;1.00;;;;;;5048236;28;20289;-59
2022/10/19 07:29:15;;;;;;;12.83;7.17;;;13.70;1.00;;;;;;5049615;28;20457;-60
2022/10/19 07:31:41;;;;;;;13.90;6.90;;;13.90;1.00;;;;;;5048427;28;20664;-60
2022/10/19 07:34:10;;;;;;;9.77;6.43;;;13.90;1.00;;;;;;5048656;28;20574;-60
2022/10/19 07:36:39;;;;;;;10.90;6.60;;;13.90;1.00;;;;;;5047991;28;20428;-60
2022/10/19 07:39:06;;;;;;;10.20;6.50;;;13.10;1.00;;;;;;5046716;28;20424;-60
2022/10/19 07:41:33;;;;;;;8.93;5.97;;;13.70;1.00;;;;;;5049504;28;20490;-60
2022/10/19 07:43:59;;;;;;;21.10;6.57;;;13.80;1.00;;;;;;5046297;28;20476;-60
2022/10/19 07:46:34;;;;;;;11.00;5.80;;;13.80;1.00;;;;;;5043907;28;20412;-60
2022/10/19 07:49:00;;;;;;;9.80;5.47;;;13.90;1.00;;;;;;5047607;28;20458;-60
2022/10/19 07:51:26;;;;;;;9.67;5.00;;;14.00;1.00;;;;;;5049456;28;20522;-60
2022/10/19 07:53:52;;;;;;;9.70;4.53;;;14.00;1.00;;;;;;5049728;28;20409;-60
2022/10/19 07:56:23;;;;;;;13.10;5.97;;;14.00;1.00;;;;;;5049346;28;20409;-61
2022/10/19 07:58:52;;;;;;;10.13;6.37;;;14.10;1.00;;;;;;5048822;28;20184;-60
2022/10/19 08:01:21;;;;;;;8.23;4.60;;;14.00;1.00;;;;;;5045206;28;20525;-60
2022/10/19 08:03:48;;;;;;;5.37;3.70;;;13.90;1.00;;;;;;5049306;28;20459;-60
2022/10/19 08:06:16;;;;;;;7.83;4.53;;;13.90;1.00;;;;;;5048554;28;20429;-60
2022/10/19 08:08:42;;;;;;;7.90;3.87;;;13.80;1.00;;;;;;5049439;28;20725;-61
2022/10/19 08:11:10;;;;;;;6.77;4.30;;;13.80;1.00;;;;;;5052223;28;20447;-59
2022/10/19 08:13:38;;;;;;;7.60;4.30;;;13.90;1.00;;;;;;5045410;28;20961;-60
2022/10/19 08:16:04;;;;;;;7.83;3.97;;;13.90;1.00;;;;;;5048649;28;20456;-60
2022/10/19 08:18:31;;;;;;;6.37;4.00;;;13.80;1.00;;;;;;5049195;28;20441;-61
2022/10/19 08:20:57;;;;;;;19.93;5.57;;;14.00;1.00;;;;;;5049106;28;20438;-59
2022/10/19 08:23:23;;;;;;;7.17;4.20;;;14.00;1.00;;;;;;5048734;28;20770;-60
2022/10/19 08:25:49;;;;;;;6.47;4.13;;;14.00;1.00;;;;;;5056402;28;20884;-60
2022/10/19 08:28:15;;;;;;;7.20;3.80;;;14.00;1.00;;;;;;5050104;28;20488;-60
2022/10/19 08:30:40;;;;;;;5.40;4.47;;;14.10;1.00;;;;;;5048337;28;20413;-60
2022/10/19 08:33:07;;;;;;;6.40;4.10;;;14.10;1.00;;;;;;5048040;28;20692;-60
2022/10/19 08:35:33;;;;;;;5.40;3.60;;;14.10;1.00;;;;;;5049493;28;20231;-60
2022/10/19 08:37:59;;;;;;;6.57;4.17;;;14.00;1.00;;;;;;5048846;28;20443;-60
2022/10/19 08:40:27;;;;;;;6.80;4.23;;;14.00;1.00;;;;;;5048563;28;20417;-60
2022/10/19 08:43:02;;;;;;;8.23;4.10;;;14.20;1.00;;;;;;5048384;28;20462;-60
2022/10/19 08:45:50;;;;;;;5.30;4.10;;;14.20;1.00;;;;;;5062708;28;20404;-59
2022/10/19 08:48:16;;;;;;;8.50;4.57;;;14.20;1.00;;;;;;5057825;28;20441;-59
2022/10/19 08:50:44;;;;;;;9.47;5.27;;;14.30;1.00;;;;;;5048798;28;20613;-60
2022/10/19 08:53:15;;;;;;;6.90;4.30;;;14.40;1.00;;;;;;5047623;28;20256;-60
2022/10/19 08:56:06;;;;;;;10.90;4.20;;;14.30;1.00;;;;;;5048583;28;20414;-60
2022/10/19 08:59:03;;;;;;;7.40;4.70;;;14.60;1.00;;;;;;5047184;28;20441;-60
2022/10/19 09:01:54;;;;;;;8.77;4.70;;;14.50;1.00;;;;;;5047519;28;20474;-60
2022/10/19 09:04:36;;;;;;;7.93;3.77;;;14.50;1.00;;;;;;5045234;28;20488;-60
2022/10/19 09:07:22;;;;;;;5.43;3.67;;;14.50;1.00;;;;;;5048964;28;20427;-60
2022/10/19 09:09:55;;;;;;;8.73;3.23;;;14.70;1.00;;;;;;5050152;28;20767;-60
2022/10/19 09:12:41;;;;;;;14.60;3.40;;;14.90;1.00;;;;;;5052718;28;20437;-60
2022/10/19 09:15:16;;;;;;;5.30;3.70;;;14.90;1.00;;;;;;5052669;28;20446;-60
2022/10/19 09:17:42;;;;;;;11.07;3.40;;;14.90;1.00;;;;;;5051914;28;20425;-59
2022/10/19 09:20:20;;;;;;;11.00;3.60;;;15.10;1.00;;;;;;5052963;28;20435;-61
2022/10/19 09:22:59;;;;;;;10.30;3.57;;;15.20;1.00;;;;;;5050019;28;20258;-59
2022/10/19 09:25:25;;;;;;;5.10;3.00;;;15.30;1.00;;;;;;5051364;28;20447;-62
2022/10/19 09:28:14;;;;;;;4.67;2.77;;;15.20;1.00;;;;;;5048573;28;20454;-61
2022/10/19 09:30:41;;;;;;;6.03;2.97;;;15.20;1.00;;;;;;5051972;28;20419;-61
2022/10/19 09:33:14;;;;;;;6.53;3.00;;;15.30;1.00;;;;;;5051011;28;20496;-60
2022/10/19 09:35:43;;;;;;;7.67;4.30;;;15.30;1.00;;;;;;5051780;28;20451;-60
2022/10/19 09:38:15;;;;;;;4.30;2.83;;;15.40;1.00;;;;;;5049766;28;20565;-60
2022/10/19 09:40:41;;;;;;;6.60;3.30;;;15.40;1.00;;;;;;5051462;28;20417;-60
2022/10/19 09:43:18;;;;;;;7.87;3.47;;;15.30;1.00;;;;;;5047684;28;20990;-60
2022/10/19 09:45:48;;;;;;;5.37;3.30;;;15.10;1.00;;;;;;5051719;28;20199;-61
2022/10/19 09:48:32;;;;;;;4.53;3.17;;;15.30;1.00;;;;;;5051316;28;20491;-60
2022/10/19 09:51:00;;;;;;;6.03;3.30;;;15.30;1.00;;;;;;5052427;28;20423;-59
2022/10/19 09:53:27;;;;;;;4.93;3.70;;;15.30;1.00;;;;;;5045316;28;20421;-60
2022/10/19 09:55:57;;;;;;;6.40;3.43;;;15.30;1.00;;;;;;5051996;28;20447;-60
2022/10/19 09:58:29;;;;;;;4.80;2.53;;;15.30;1.00;;;;;;5062303;28;20460;-60
2022/10/19 10:00:56;;;;;;;7.10;2.80;;;15.20;1.00;;;;;;5051242;28;20421;-60
2022/10/19 10:03:27;;;;;;;5.07;2.17;;;15.20;1.00;;;;;;5051045;28;20429;-60
2022/10/19 10:05:55;;;;;;;3.97;2.10;;;15.10;1.00;;;;;;5046919;28;20413;-61
2022/10/19 10:08:24;;;;;;;2.33;1.57;;;15.20;1.00;;;;;;5051080;28;20463;-61
2022/10/19 10:11:23;;;;;;;2.67;1.80;;;15.50;1.00;;;;;;5051842;28;20425;-59
2022/10/19 10:13:51;;;;;;;3.23;1.70;;;15.70;1.00;;;;;;5036527;28;20429;-60
2022/10/19 10:16:22;;;;;;;4.00;1.87;;;15.70;1.00;;;;;;5049792;28;20431;-60
2022/10/19 10:18:59;;;;;;;2.77;1.90;;;15.70;1.00;;;;;;5050504;28;20421;-61
2022/10/19 10:21:30;;;;;;;5.83;2.20;;;15.90;1.00;;;;;;5048854;28;20532;-60
2022/10/19 10:24:04;;;;;;;3.27;1.90;;;16.00;1.00;;;;;;5049151;28;20424;-59
2022/10/19 10:26:30;;;;;;;3.60;1.53;;;16.10;1.00;;;;;;5051885;28;20444;-60
2022/10/19 10:28:55;;;;;;;2.07;1.40;;;16.30;1.00;;;;;;5050851;28;20424;-60
2022/10/19 10:31:24;;;;;;;2.90;1.60;;;16.20;1.00;;;;;;5050969;28;20510;-59
2022/10/19 10:33:58;;;;;;;3.50;1.40;;;16.00;1.00;;;;;;5050569;28;20186;-60
2022/10/19 10:36:26;;;;;;;2.97;1.80;;;16.00;1.00;;;;;;5049932;28;20460;-60
2022/10/19 10:39:04;;;;;;;3.10;1.97;;;15.90;1.00;;;;;;5047755;28;20457;-61
2022/10/19 10:41:35;;;;;;;4.57;1.63;;;15.80;1.00;;;;;;5044857;28;20470;-60
2022/10/19 10:44:06;;;;;;;2.40;2.03;;;15.70;1.00;;;;;;5046250;28;21068;-60
2022/10/19 10:46:44;;;;;;;2.03;1.50;;;15.80;1.00;;;;;;5041959;28;20499;-61
2022/10/19 10:49:22;;;;;;;2.20;1.30;;;16.10;1.00;;;;;;5047958;28;20494;-61
2022/10/19 10:51:55;;;;;;;3.33;1.60;;;15.90;1.00;;;;;;5046339;28;20443;-60
2022/10/19 10:54:24;;;;;;;5.60;1.63;;;15.60;1.00;;;;;;5050389;28;20458;-60
2022/10/19 10:57:12;;;;;;;4.80;1.33;;;15.70;1.00;;;;;;5065147;28;20452;-60
2022/10/19 11:00:11;;;;;;;3.03;1.60;;;15.90;1.00;;;;;;5048298;28;20532;-68
2022/10/19 11:03:03;;;;;;;3.63;1.30;;;16.20;1.00;;;;;;5048108;28;20477;-60
2022/10/19 11:05:44;;;;;;;2.87;1.60;;;16.10;1.00;;;;;;5055805;28;20540;-61
2022/10/19 11:08:25;;;;;;;2.80;1.30;;;15.90;1.00;;;;;;5058912;28;20452;-61
2022/10/19 11:10:57;;;;;;;1.87;1.20;;;15.90;1.00;;;;;;5050889;28;20465;-59
2022/10/19 11:13:27;;;;;;;2.07;1.10;;;16.00;1.00;;;;;;5055370;28;20417;-59
2022/10/19 11:16:12;;;;;;;2.83;1.40;;;16.00;1.00;;;;;;5050103;28;20412;-60
2022/10/19 11:18:58;;;;;;;4.10;1.10;;;15.90;1.00;;;;;;5056752;28;20948;-59
2022/10/19 11:21:44;;;;;;;1.63;0.87;;;15.70;1.00;;;;;;5047136;28;20437;-58
2022/10/19 11:24:17;;;;;;;2.50;1.00;;;15.50;1.00;;;;;;5051223;28;20439;-61
2022/10/19 11:27:07;;;;;;;2.00;1.40;;;15.30;1.00;;;;;;5063489;28;20417;-59
2022/10/19 11:29:48;;;;;;;3.23;1.00;;;15.40;1.00;;;;;;5049884;28;20533;-61
2022/10/19 11:32:40;;;;;;;2.30;1.20;;;15.30;1.00;;;;;;5049376;28;20439;-60
2022/10/19 11:35:26;;;;;;;2.60;1.10;;;15.40;1.00;;;;;;5048948;28;20432;-59
2022/10/19 11:38:12;;;;;;;1.73;0.70;;;15.60;1.00;;;;;;5052921;28;20846;-59
2022/10/19 11:40:52;;;;;;;2.10;0.70;;;15.70;1.00;;;;;;5068931;28;20718;-60
2022/10/19 11:43:28;;;;;;;1.47;0.60;;;15.60;1.00;;;;;;5048193;28;20986;-60
2022/10/19 11:46:21;;;;;;;1.10;0.67;;;15.50;1.00;;;;;;5049410;28;20937;-60
2022/10/19 11:51:57;;;;;;;4.77;0.90;;;15.40;1.00;;;;;;5056387;28;20409;-60
2022/10/19 11:54:37;;;;;;;1.93;0.60;;;15.60;1.00;;;;;;5053806;28;20897;-60
2022/10/19 11:57:11;;;;;;;3.03;1.00;;;15.50;1.00;;;;;;5048180;28;20527;-60
2022/10/19 11:59:46;;;;;;;1.43;1.17;;;15.50;1.00;;;;;;5049089;28;20508;-60
2022/10/19 12:02:39;;;;;;;3.03;0.97;;;15.50;1.00;;;;;;5049051;28;20444;-59
2022/10/19 12:05:23;;;;;;;1.40;0.60;;;15.60;1.00;;;;;;5042057;28;20454;-60
2022/10/19 12:08:07;;;;;;;1.97;0.70;;;15.60;1.00;;;;;;5049443;28;20544;-59
2022/10/19 12:10:46;;;;;;;2.50;1.20;;;15.70;1.00;;;;;;5056625;28;20485;-60
2022/10/19 12:13:17;;;;;;;1.43;0.97;;;15.70;1.00;;;;;;5049460;28;20404;-60
2022/10/19 12:15:47;;;;;;;2.20;0.80;;;15.70;1.00;;;;;;5061809;28;20529;-59
2022/10/19 12:18:29;;;;;;;1.23;0.60;;;15.80;1.00;;;;;;5047809;28;20469;-60
2022/10/19 12:20:59;;;;;;;2.03;0.93;;;15.80;1.00;;;;;;5053144;28;20452;-60
2022/10/19 12:23:34;;;;;;;2.80;1.13;;;16.00;1.00;;;;;;5042864;28;20499;-59
2022/10/19 12:26:04;;;;;;;1.50;0.77;;;15.90;1.00;;;;;;5046333;28;20449;-60
2022/10/19 12:28:33;;;;;;;1.53;0.83;;;15.90;1.00;;;;;;5041580;28;20833;-60
2022/10/19 12:31:00;;;;;;;2.20;0.90;;;16.00;1.00;;;;;;5051360;28;20474;-60
2022/10/19 12:33:48;;;;;;;3.50;0.47;;;16.00;1.00;;;;;;5040106;28;21012;-58
2022/10/19 12:36:31;;;;;;;0.87;0.50;;;15.90;1.00;;;;;;5047441;28;20415;-61
2022/10/19 12:39:22;;;;;;;1.37;0.67;;;15.90;1.00;;;;;;5047894;28;20936;-60
2022/10/19 12:42:02;;;;;;;0.70;0.50;;;15.80;1.00;;;;;;5054138;28;20446;-62
2022/10/19 12:45:05;;;;;;;3.40;0.70;;;15.90;1.00;;;;;;5049706;28;21055;-58
2022/10/19 12:47:31;;;;;;;0.93;0.70;;;16.10;1.00;;;;;;5052464;28;20916;-60
2022/10/19 12:49:57;;;;;;;1.57;1.03;;;16.10;1.00;;;;;;5051450;28;20499;-60
2022/10/19 12:52:44;;;;;;;1.47;0.50;;;15.90;1.00;;;;;;5050766;28;20201;-61
2022/10/19 12:55:16;;;;;;;1.50;0.40;;;16.00;1.00;;;;;;5054144;28;20469;-60
2022/10/19 12:57:46;;;;;;;1.00;0.60;;;16.20;1.00;;;;;;5050747;28;20451;-60
2022/10/19 13:00:24;;;;;;;0.93;0.57;;;16.00;1.00;;;;;;5049113;28;20936;-61
2022/10/19 13:03:06;;;;;;;2.20;1.07;;;15.90;1.00;;;;;;5047327;28;20848;-60
2022/10/19 13:05:33;;;;;;;3.10;0.60;;;16.00;1.00;;;;;;5049179;28;20460;-60